sensor_id;sensor_type;location;lat;lon;timestamp;pressure;altitude;pressure_sealevel;temperature;humidity
7433;BME280;32233;49.500;7.764;2023-05-08T00:02:03;98786.19;;;12.84;100.00
7433;BME280;32233;49.500;7.764;2023-05-08T00:04:30;98789.06;;;12.82;100.00
7433;BME280;32233;49.500;7.764;2023-05-08T00:06:56;98784.38;;;12.84;100.00
7433;BME280;32233;49.500;7.764;2023-05-08T00:09:23;98782.13;;;12.81;100.00
7433;BME280;32233;49.500;7.764;2023-05-08T00:11:49;98783.16;;;12.87;100.00
7433;BME280;32233;49.500;7.764;2023-05-08T00:14:16;98785.97;;;12.92;100.00
7433;BME280;32233;49.500;7.764;2023-05-08T00:16:43;98785.97;;;12.85;100.00
7433;BME280;32233;49.500;7.764;2023-05-08T00:19:12;98788.63;;;12.99;100.00
7433;BME280;32233;49.500;7.764;2023-05-08T00:21:41;98790.66;;;13.03;100.00
7433;BME280;32233;49.500;7.764;2023-05-08T00:24:08;98790.44;;;13.05;100.00
7433;BME280;32233;49.500;7.764;2023-05-08T00:26:34;98787.81;;;12.98;100.00
7433;BME280;32233;49.500;7.764;2023-05-08T00:29:00;98786.56;;;13.01;100.00
7433;BME280;32233;49.500;7.764;2023-05-08T00:31:27;98789.16;;;13.14;100.00
7433;BME280;32233;49.500;7.764;2023-05-08T00:33:54;98793.13;;;12.98;100.00
7433;BME280;32233;49.500;7.764;2023-05-08T00:36:21;98790.25;;;13.00;100.00
7433;BME280;32233;49.500;7.764;2023-05-08T00:38:49;98788.41;;;13.00;100.00
7433;BME280;32233;49.500;7.764;2023-05-08T00:41:18;98785.94;;;13.05;100.00
7433;BME280;32233;49.500;7.764;2023-05-08T00:43:48;98787.97;;;13.10;100.00
7433;BME280;32233;49.500;7.764;2023-05-08T00:46:14;98786.97;;;13.11;100.00
7433;BME280;32233;49.500;7.764;2023-05-08T00:48:42;98790.19;;;13.20;100.00
7433;BME280;32233;49.500;7.764;2023-05-08T00:51:09;98791.00;;;13.13;100.00
7433;BME280;32233;49.500;7.764;2023-05-08T00:53:38;98791.00;;;13.20;100.00
7433;BME280;32233;49.500;7.764;2023-05-08T00:56:09;98785.47;;;13.22;100.00
7433;BME280;32233;49.500;7.764;2023-05-08T00:58:36;98786.53;;;13.14;100.00
7433;BME280;32233;49.500;7.764;2023-05-08T01:01:03;98792.28;;;12.98;100.00
7433;BME280;32233;49.500;7.764;2023-05-08T01:03:31;98793.31;;;12.97;100.00
7433;BME280;32233;49.500;7.764;2023-05-08T01:05:58;98781.31;;;12.94;100.00
7433;BME280;32233;49.500;7.764;2023-05-08T01:08:25;98789.88;;;12.83;100.00
7433;BME280;32233;49.500;7.764;2023-05-08T01:13:51;98786.41;;;12.82;100.00
7433;BME280;32233;49.500;7.764;2023-05-08T01:16:42;98791.50;;;12.91;100.00
7433;BME280;32233;49.500;7.764;2023-05-08T01:21:53;98792.31;;;12.91;100.00
7433;BME280;32233;49.500;7.764;2023-05-08T01:24:48;98794.78;;;12.86;100.00
7433;BME280;32233;49.500;7.764;2023-05-08T01:33:19;98793.13;;;12.85;100.00
7433;BME280;32233;49.500;7.764;2023-05-08T01:35:55;98791.28;;;12.85;100.00
7433;BME280;32233;49.500;7.764;2023-05-08T01:38:39;98789.03;;;12.89;100.00
7433;BME280;32233;49.500;7.764;2023-05-08T01:41:15;98787.22;;;12.83;100.00
7433;BME280;32233;49.500;7.764;2023-05-08T01:44:23;98792.13;;;12.79;100.00
7433;BME280;32233;49.500;7.764;2023-05-08T01:46:49;98794.78;;;12.79;100.00
7433;BME280;32233;49.500;7.764;2023-05-08T01:49:26;98800.28;;;12.84;100.00
7433;BME280;32233;49.500;7.764;2023-05-08T01:52:28;98803.97;;;12.83;100.00
7433;BME280;32233;49.500;7.764;2023-05-08T01:55:07;98810.66;;;12.93;100.00
7433;BME280;32233;49.500;7.764;2023-05-08T01:57:38;98808.66;;;12.88;100.00
7433;BME280;32233;49.500;7.764;2023-05-08T02:00:07;98804.97;;;12.89;100.00
7433;BME280;32233;49.500;7.764;2023-05-08T02:02:38;98809.06;;;12.92;100.00
7433;BME280;32233;49.500;7.764;2023-05-08T02:05:07;98812.31;;;12.87;100.00
7433;BME280;32233;49.500;7.764;2023-05-08T02:07:34;98814.16;;;12.86;100.00
7433;BME280;32233;49.500;7.764;2023-05-08T02:10:04;98820.91;;;12.82;100.00
7433;BME280;32233;49.500;7.764;2023-05-08T02:12:32;98820.91;;;12.82;100.00
7433;BME280;32233;49.500;7.764;2023-05-08T02:15:00;98824.78;;;12.80;100.00
7433;BME280;32233;49.500;7.764;2023-05-08T02:17:29;98820.47;;;12.85;100.00
7433;BME280;32233;49.500;7.764;2023-05-08T02:20:00;98825.81;;;12.79;100.00
7433;BME280;32233;49.500;7.764;2023-05-08T02:22:30;98826.84;;;12.78;100.00
7433;BME280;32233;49.500;7.764;2023-05-08T02:24:58;98830.91;;;12.87;100.00
7433;BME280;32233;49.500;7.764;2023-05-08T02:27:26;98822.94;;;12.87;100.00
7433;BME280;32233;49.500;7.764;2023-05-08T02:29:55;98828.44;;;12.92;100.00
7433;BME280;32233;49.500;7.764;2023-05-08T02:32:24;98823.75;;;12.87;100.00
7433;BME280;32233;49.500;7.764;2023-05-08T02:34:53;98822.31;;;12.92;100.00
7433;BME280;32233;49.500;7.764;2023-05-08T02:37:30;98817.59;;;12.94;100.00
7433;BME280;32233;49.500;7.764;2023-05-08T02:39:57;98823.72;;;13.01;100.00
7433;BME280;32233;49.500;7.764;2023-05-08T02:42:24;98822.09;;;13.06;100.00
7433;BME280;32233;49.500;7.764;2023-05-08T02:44:51;98816.94;;;13.18;100.00
7433;BME280;32233;49.500;7.764;2023-05-08T02:47:21;98822.72;;;12.95;100.00
7433;BME280;32233;49.500;7.764;2023-05-08T02:49:53;98820.88;;;12.89;100.00
7433;BME280;32233;49.500;7.764;2023-05-08T02:52:27;98816.00;;;12.86;100.00
7433;BME280;32233;49.500;7.764;2023-05-08T02:55:43;98820.88;;;12.89;100.00
7433;BME280;32233;49.500;7.764;2023-05-08T02:57:52;98817.22;;;12.90;100.00
7433;BME280;32233;49.500;7.764;2023-05-08T03:00:30;98820.06;;;12.88;100.00
7433;BME280;32233;49.500;7.764;2023-05-08T03:03:12;98817.00;;;12.92;100.00
7433;BME280;32233;49.500;7.764;2023-05-08T03:05:45;98821.31;;;12.79;100.00
7433;BME280;32233;49.500;7.764;2023-05-08T03:08:14;98816.59;;;12.88;100.00
7433;BME280;32233;49.500;7.764;2023-05-08T03:10:45;98813.13;;;12.81;100.00
7433;BME280;32233;49.500;7.764;2023-05-08T03:13:17;98816.59;;;12.88;100.00
7433;BME280;32233;49.500;7.764;2023-05-08T03:15:47;98821.50;;;12.91;100.00
7433;BME280;32233;49.500;7.764;2023-05-08T03:18:19;98824.56;;;12.81;100.00
7433;BME280;32233;49.500;7.764;2023-05-08T03:20:50;98821.53;;;12.78;100.00
7433;BME280;32233;49.500;7.764;2023-05-08T03:23:20;98826.00;;;12.77;100.00
7433;BME280;32233;49.500;7.764;2023-05-08T03:25:47;98823.97;;;12.86;100.00
7433;BME280;32233;49.500;7.764;2023-05-08T03:28:15;98821.53;;;12.78;100.00
7433;BME280;32233;49.500;7.764;2023-05-08T03:30:43;98821.50;;;12.91;100.00
7433;BME280;32233;49.500;7.764;2023-05-08T03:33:12;98821.31;;;12.79;100.00
7433;BME280;32233;49.500;7.764;2023-05-08T03:35:40;98825.00;;;12.78;100.00
7433;BME280;32233;49.500;7.764;2023-05-08T03:38:08;98831.94;;;12.79;100.00
7433;BME280;32233;49.500;7.764;2023-05-08T03:40:35;98820.91;;;12.76;100.00
7433;BME280;32233;49.500;7.764;2023-05-08T03:43:08;98822.53;;;12.77;100.00
7433;BME280;32233;49.500;7.764;2023-05-08T03:45:37;98821.53;;;12.78;100.00
7433;BME280;32233;49.500;7.764;2023-05-08T03:48:05;98822.13;;;12.86;100.00
7433;BME280;32233;49.500;7.764;2023-05-08T03:50:36;98821.09;;;12.81;100.00
7433;BME280;32233;49.500;7.764;2023-05-08T03:53:06;98818.44;;;12.81;100.00
7433;BME280;32233;49.500;7.764;2023-05-08T03:55:33;98810.28;;;12.76;100.00
7433;BME280;32233;49.500;7.764;2023-05-08T04:01:10;98819.28;;;12.68;100.00
7433;BME280;32233;49.500;7.764;2023-05-08T04:04:06;98819.09;;;12.70;100.00
7433;BME280;32233;49.500;7.764;2023-05-08T04:07:02;98830.72;;;12.62;100.00
7433;BME280;32233;49.500;7.764;2023-05-08T04:09:44;98834.16;;;12.82;100.00
7433;BME280;32233;49.500;7.764;2023-05-08T04:12:19;98834.38;;;12.94;100.00
7433;BME280;32233;49.500;7.764;2023-05-08T04:15:05;98839.66;;;12.81;100.00
7433;BME280;32233;49.500;7.764;2023-05-08T04:17:39;98836.81;;;12.82;100.00
7433;BME280;32233;49.500;7.764;2023-05-08T04:20:12;98841.53;;;12.74;100.00
7433;BME280;32233;49.500;7.764;2023-05-08T04:22:41;98834.16;;;12.89;100.00
7433;BME280;32233;49.500;7.764;2023-05-08T04:25:09;98833.97;;;12.84;100.00
7433;BME280;32233;49.500;7.764;2023-05-08T04:27:38;98840.47;;;12.88;100.00
7433;BME280;32233;49.500;7.764;2023-05-08T04:30:07;98841.47;;;12.94;100.00
7433;BME280;32233;49.500;7.764;2023-05-08T04:32:35;98848.63;;;12.93;100.00
7433;BME280;32233;49.500;7.764;2023-05-08T04:35:06;98849.28;;;12.82;100.00
7433;BME280;32233;49.500;7.764;2023-05-08T04:37:33;98840.88;;;12.92;100.00
7433;BME280;32233;49.500;7.764;2023-05-08T04:40:02;98853.34;;;12.91;100.00
7433;BME280;32233;49.500;7.764;2023-05-08T04:42:31;98853.94;;;13.00;100.00
7433;BME280;32233;49.500;7.764;2023-05-08T04:45:02;98859.84;;;13.02;100.00
7433;BME280;32233;49.500;7.764;2023-05-08T04:47:29;98857.19;;;13.02;100.00
7433;BME280;32233;49.500;7.764;2023-05-08T04:49:56;98856.41;;;12.95;100.00
7433;BME280;32233;49.500;7.764;2023-05-08T04:52:24;98861.09;;;12.93;100.00
7433;BME280;32233;49.500;7.764;2023-05-08T04:54:51;98860.28;;;12.92;100.00
7433;BME280;32233;49.500;7.764;2023-05-08T04:57:18;98860.88;;;13.07;100.00
7433;BME280;32233;49.500;7.764;2023-05-08T04:59:44;98868.25;;;12.99;100.00
7433;BME280;32233;49.500;7.764;2023-05-08T05:02:11;98865.78;;;13.04;100.00
7433;BME280;32233;49.500;7.764;2023-05-08T05:04:37;98867.63;;;13.03;100.00
7433;BME280;32233;49.500;7.764;2023-05-08T05:07:04;98858.00;;;13.16;100.00
7433;BME280;32233;49.500;7.764;2023-05-08T05:09:31;98859.63;;;13.10;100.00
7433;BME280;32233;49.500;7.764;2023-05-08T05:12:03;98872.91;;;13.03;100.00
7433;BME280;32233;49.500;7.764;2023-05-08T05:14:30;98871.28;;;12.96;100.00
7433;BME280;32233;49.500;7.764;2023-05-08T05:16:56;98879.03;;;12.97;100.00
7433;BME280;32233;49.500;7.764;2023-05-08T05:19:23;98872.69;;;13.05;100.00
7433;BME280;32233;49.500;7.764;2023-05-08T05:21:50;98872.50;;;13.06;100.00
7433;BME280;32233;49.500;7.764;2023-05-08T05:24:17;98877.59;;;13.01;100.00
7433;BME280;32233;49.500;7.764;2023-05-08T05:26:43;98878.41;;;13.02;100.00
7433;BME280;32233;49.500;7.764;2023-05-08T05:29:11;98881.91;;;12.96;100.00
7433;BME280;32233;49.500;7.764;2023-05-08T05:31:38;98886.81;;;12.99;100.00
7433;BME280;32233;49.500;7.764;2023-05-08T05:34:04;98885.16;;;13.04;100.00
7433;BME280;32233;49.500;7.764;2023-05-08T05:36:31;98885.78;;;13.00;100.00
7433;BME280;32233;49.500;7.764;2023-05-08T05:38:58;98888.84;;;13.03;100.00
7433;BME280;32233;49.500;7.764;2023-05-08T05:41:24;98888.63;;;13.11;100.00
7433;BME280;32233;49.500;7.764;2023-05-08T05:43:51;98891.88;;;13.20;100.00
7433;BME280;32233;49.500;7.764;2023-05-08T05:46:17;98892.09;;;13.12;100.00
7433;BME280;32233;49.500;7.764;2023-05-08T05:48:44;98892.09;;;13.19;100.00
7433;BME280;32233;49.500;7.764;2023-05-08T05:51:11;98889.22;;;13.20;100.00
7433;BME280;32233;49.500;7.764;2023-05-08T05:53:38;98891.06;;;13.20;100.00
7433;BME280;32233;49.500;7.764;2023-05-08T05:56:05;98901.28;;;13.09;100.00
7433;BME280;32233;49.500;7.764;2023-05-08T05:58:32;98902.50;;;13.13;100.00
7433;BME280;32233;49.500;7.764;2023-05-08T06:00:58;98899.63;;;13.22;100.00
7433;BME280;32233;49.500;7.764;2023-05-08T06:03:29;98899.03;;;13.26;100.00
7433;BME280;32233;49.500;7.764;2023-05-08T06:05:56;98902.72;;;13.32;100.00
7433;BME280;32233;49.500;7.764;2023-05-08T06:08:24;98897.41;;;13.32;100.00
7433;BME280;32233;49.500;7.764;2023-05-08T06:10:50;98901.88;;;13.38;100.00
7433;BME280;32233;49.500;7.764;2023-05-08T06:13:17;98897.59;;;13.37;100.00
7433;BME280;32233;49.500;7.764;2023-05-08T06:15:44;98891.63;;;13.48;100.00
7433;BME280;32233;49.500;7.764;2023-05-08T06:18:11;98895.69;;;13.57;100.00
7433;BME280;32233;49.500;7.764;2023-05-08T06:20:37;98889.56;;;13.50;100.00
7433;BME280;32233;49.500;7.764;2023-05-08T06:23:04;98898.56;;;13.43;100.00
7433;BME280;32233;49.500;7.764;2023-05-08T06:25:31;98897.00;;;13.35;100.00
7433;BME280;32233;49.500;7.764;2023-05-08T06:27:57;98894.34;;;13.35;100.00
7433;BME280;32233;49.500;7.764;2023-05-08T06:30:24;98890.25;;;13.39;100.00
7433;BME280;32233;49.500;7.764;2023-05-08T06:32:50;98893.06;;;13.44;100.00
7433;BME280;32233;49.500;7.764;2023-05-08T06:35:17;98894.91;;;13.44;100.00
7433;BME280;32233;49.500;7.764;2023-05-08T06:37:45;98903.03;;;13.62;100.00
7433;BME280;32233;49.500;7.764;2023-05-08T06:40:12;98900.78;;;13.59;100.00
7433;BME280;32233;49.500;7.764;2023-05-08T06:42:39;98898.72;;;13.68;100.00
7433;BME280;32233;49.500;7.764;2023-05-08T06:45:09;98899.94;;;13.72;100.00
7433;BME280;32233;49.500;7.764;2023-05-08T06:47:36;98896.81;;;13.81;100.00
7433;BME280;32233;49.500;7.764;2023-05-08T06:50:03;98905.84;;;13.74;100.00
7433;BME280;32233;49.500;7.764;2023-05-08T06:52:30;98897.84;;;13.80;100.00
7433;BME280;32233;49.500;7.764;2023-05-08T06:54:56;98884.00;;;13.72;100.00
7433;BME280;32233;49.500;7.764;2023-05-08T06:57:23;98896.44;;;13.71;100.00
7433;BME280;32233;49.500;7.764;2023-05-08T06:59:52;98893.19;;;13.69;100.00
7433;BME280;32233;49.500;7.764;2023-05-08T07:02:19;98902.44;;;13.60;100.00
7433;BME280;32233;49.500;7.764;2023-05-08T07:04:46;98904.69;;;13.56;100.00
7433;BME280;32233;49.500;7.764;2023-05-08T07:07:12;98909.94;;;13.70;100.00
7433;BME280;32233;49.500;7.764;2023-05-08T07:09:40;98910.59;;;13.58;100.00
7433;BME280;32233;49.500;7.764;2023-05-08T07:12:06;98914.69;;;13.61;100.00
7433;BME280;32233;49.500;7.764;2023-05-08T07:14:34;98918.19;;;13.42;100.00
7433;BME280;32233;49.500;7.764;2023-05-08T07:17:04;98920.66;;;13.36;100.00
7433;BME280;32233;49.500;7.764;2023-05-08T07:19:34;98912.06;;;13.48;100.00
7433;BME280;32233;49.500;7.764;2023-05-08T07:22:01;98916.56;;;13.34;100.00
7433;BME280;32233;49.500;7.764;2023-05-08T07:24:27;98927.22;;;13.27;100.00
7433;BME280;32233;49.500;7.764;2023-05-08T07:26:54;98927.63;;;13.31;100.00
7433;BME280;32233;49.500;7.764;2023-05-08T07:29:21;98926.78;;;13.37;100.00
7433;BME280;32233;49.500;7.764;2023-05-08T07:31:47;98924.75;;;13.32;100.00
7433;BME280;32233;49.500;7.764;2023-05-08T07:34:14;98925.97;;;13.36;100.00
7433;BME280;32233;49.500;7.764;2023-05-08T07:36:43;98926.38;;;13.40;100.00
7433;BME280;32233;49.500;7.764;2023-05-08T07:39:10;98928.66;;;13.23;100.00
7433;BME280;32233;49.500;7.764;2023-05-08T07:41:36;98927.41;;;13.39;100.00
7433;BME280;32233;49.500;7.764;2023-05-08T07:44:06;98928.41;;;13.38;100.00
7433;BME280;32233;49.500;7.764;2023-05-08T07:46:33;98927.19;;;13.34;100.00
7433;BME280;32233;49.500;7.764;2023-05-08T07:48:59;98930.66;;;13.34;100.00
7433;BME280;32233;49.500;7.764;2023-05-08T07:51:26;98931.88;;;13.38;100.00
7433;BME280;32233;49.500;7.764;2023-05-08T07:53:53;98936.38;;;13.45;100.00
7433;BME280;32233;49.500;7.764;2023-05-08T07:56:20;98929.22;;;13.52;100.00
7433;BME280;32233;49.500;7.764;2023-05-08T07:58:50;98934.72;;;13.57;100.00
7433;BME280;32233;49.500;7.764;2023-05-08T08:01:16;98935.53;;;13.57;100.00
7433;BME280;32233;49.500;7.764;2023-05-08T08:03:44;98933.91;;;13.56;100.00
7433;BME280;32233;49.500;7.764;2023-05-08T08:06:11;98933.69;;;13.65;100.00
7433;BME280;32233;49.500;7.764;2023-05-08T08:08:38;98939.34;;;13.81;100.00
7433;BME280;32233;49.500;7.764;2023-05-08T08:11:05;98939.97;;;13.70;100.00
7433;BME280;32233;49.500;7.764;2023-05-08T08:13:32;98941.25;;;13.61;100.00
7433;BME280;32233;49.500;7.764;2023-05-08T08:15:59;98938.81;;;13.59;100.00
7433;BME280;32233;49.500;7.764;2023-05-08T08:18:26;98946.16;;;13.57;100.00
7433;BME280;32233;49.500;7.764;2023-05-08T08:20:53;98942.84;;;13.69;100.00
7433;BME280;32233;49.500;7.764;2023-05-08T08:23:20;98952.41;;;13.83;100.00
7433;BME280;32233;49.500;7.764;2023-05-08T08:25:46;98946.69;;;13.86;100.00
7433;BME280;32233;49.500;7.764;2023-05-08T08:28:13;98942.91;;;14.07;100.00
7433;BME280;32233;49.500;7.764;2023-05-08T08:30:40;98949.41;;;14.18;100.00
7433;BME280;32233;49.500;7.764;2023-05-08T08:33:06;98953.09;;;14.17;100.00
7433;BME280;32233;49.500;7.764;2023-05-08T08:35:33;98957.88;;;14.40;100.00
7433;BME280;32233;49.500;7.764;2023-05-08T08:38:00;98954.81;;;14.36;100.00
7433;BME280;32233;49.500;7.764;2023-05-08T08:40:26;98952.72;;;14.45;100.00
7433;BME280;32233;49.500;7.764;2023-05-08T08:42:54;98950.47;;;14.48;100.00
7433;BME280;32233;49.500;7.764;2023-05-08T08:45:20;98949.22;;;14.57;100.00
7433;BME280;32233;49.500;7.764;2023-05-08T08:47:47;98952.13;;;14.49;100.00
7433;BME280;32233;49.500;7.764;2023-05-08T08:50:18;98957.69;;;14.73;100.00
7433;BME280;32233;49.500;7.764;2023-05-08T08:52:49;98958.38;;;14.93;100.00
7433;BME280;32233;49.500;7.764;2023-05-08T08:55:18;98952.34;;;14.79;100.00
7433;BME280;32233;49.500;7.764;2023-05-08T08:57:51;98957.88;;;14.78;100.00
7433;BME280;32233;49.500;7.764;2023-05-08T09:00:21;98955.97;;;14.85;100.00
7433;BME280;32233;49.500;7.764;2023-05-08T09:02:48;98958.31;;;15.00;100.00
7433;BME280;32233;49.500;7.764;2023-05-08T09:05:16;98963.09;;;14.91;100.00
7433;BME280;32233;49.500;7.764;2023-05-08T09:07:43;98962.47;;;14.64;100.00
7433;BME280;32233;49.500;7.764;2023-05-08T09:10:10;98968.53;;;14.78;100.00
7433;BME280;32233;49.500;7.764;2023-05-08T09:12:40;98962.31;;;14.84;100.00
7433;BME280;32233;49.500;7.764;2023-05-08T09:15:07;98971.13;;;14.53;100.00
7433;BME280;32233;49.500;7.764;2023-05-08T09:17:34;98964.69;;;14.67;100.00
7433;BME280;32233;49.500;7.764;2023-05-08T09:20:00;98968.19;;;14.68;100.00
7433;BME280;32233;49.500;7.764;2023-05-08T09:22:27;98973.66;;;14.73;100.00
7433;BME280;32233;49.500;7.764;2023-05-08T09:24:59;98969.06;;;14.86;100.00
7433;BME280;32233;49.500;7.764;2023-05-08T09:27:28;98970.00;;;14.74;100.00
7433;BME280;32233;49.500;7.764;2023-05-08T09:30:08;98970.84;;;14.68;100.00
7433;BME280;32233;49.500;7.764;2023-05-08T09:32:38;98968.22;;;14.61;100.00
7433;BME280;32233;49.500;7.764;2023-05-08T09:35:06;98971.09;;;14.59;100.00
7433;BME280;32233;49.500;7.764;2023-05-08T09:37:33;98975.09;;;15.25;100.00
7433;BME280;32233;49.500;7.764;2023-05-08T09:42:40;98985.44;;;14.90;100.00
7433;BME280;32233;49.500;7.764;2023-05-08T09:45:07;98983.34;;;14.92;100.00
7433;BME280;32233;49.500;7.764;2023-05-08T09:47:34;98981.38;;;14.81;100.00
7433;BME280;32233;49.500;7.764;2023-05-08T09:50:04;98976.69;;;14.83;100.00
7433;BME280;32233;49.500;7.764;2023-05-08T09:52:32;98977.66;;;15.14;100.00
7433;BME280;32233;49.500;7.764;2023-05-08T09:55:07;98976.00;;;15.19;100.00
7433;BME280;32233;49.500;7.764;2023-05-08T09:57:37;98982.03;;;15.26;100.00
7433;BME280;32233;49.500;7.764;2023-05-08T10:00:11;98976.81;;;15.20;100.00
7433;BME280;32233;49.500;7.764;2023-05-08T10:02:40;98983.63;;;15.09;100.00
7433;BME280;32233;49.500;7.764;2023-05-08T10:05:29;98986.47;;;15.39;100.00
7433;BME280;32233;49.500;7.764;2023-05-08T10:08:22;98986.38;;;15.46;100.00
7433;BME280;32233;49.500;7.764;2023-05-08T10:10:49;98979.72;;;15.55;100.00
7433;BME280;32233;49.500;7.764;2023-05-08T10:13:15;98986.59;;;16.54;100.00
7433;BME280;32233;49.500;7.764;2023-05-08T10:15:43;98986.22;;;16.51;100.00
7433;BME280;32233;49.500;7.764;2023-05-08T10:18:10;98981.41;;;16.29;100.00
7433;BME280;32233;49.500;7.764;2023-05-08T10:20:41;98978.09;;;16.46;100.00
7433;BME280;32233;49.500;7.764;2023-05-08T10:23:14;98982.63;;;16.75;98.98
7433;BME280;32233;49.500;7.764;2023-05-08T10:25:44;98976.56;;;17.33;93.88
7433;BME280;32233;49.500;7.764;2023-05-08T10:28:28;98982.84;;;17.39;94.82
7433;BME280;32233;49.500;7.764;2023-05-08T10:31:02;98974.59;;;17.76;91.20
7433;BME280;32233;49.500;7.764;2023-05-08T10:33:30;98966.31;;;17.42;91.71
7433;BME280;32233;49.500;7.764;2023-05-08T10:35:57;98975.75;;;17.33;94.88
7433;BME280;32233;49.500;7.764;2023-05-08T10:38:25;98969.47;;;17.27;95.26
7433;BME280;32233;49.500;7.764;2023-05-08T10:40:52;98970.34;;;16.74;99.38
7433;BME280;32233;49.500;7.764;2023-05-08T10:43:28;98971.88;;;16.64;100.00
7433;BME280;32233;49.500;7.764;2023-05-08T10:45:56;98962.97;;;16.40;99.47
7433;BME280;32233;49.500;7.764;2023-05-08T10:48:42;98962.53;;;16.73;100.00
7433;BME280;32233;49.500;7.764;2023-05-08T10:54:11;98962.03;;;17.18;96.48
7433;BME280;32233;49.500;7.764;2023-05-08T10:56:39;98961.00;;;17.07;94.28
7433;BME280;32233;49.500;7.764;2023-05-08T10:59:05;98952.41;;;17.28;94.94
7433;BME280;32233;49.500;7.764;2023-05-08T11:01:46;98952.25;;;17.70;97.00
7433;BME280;32233;49.500;7.764;2023-05-08T11:04:20;98951.25;;;18.40;94.73
7433;BME280;32233;49.500;7.764;2023-05-08T11:06:49;98948.91;;;18.15;93.41
7433;BME280;32233;49.500;7.764;2023-05-08T11:09:19;98943.56;;;18.15;90.56
7433;BME280;32233;49.500;7.764;2023-05-08T11:12:05;98946.69;;;18.12;90.05
7433;BME280;32233;49.500;7.764;2023-05-08T11:14:34;98933.09;;;18.71;89.76
7433;BME280;32233;49.500;7.764;2023-05-08T11:17:02;98937.88;;;18.57;88.23
7433;BME280;32233;49.500;7.764;2023-05-08T11:19:29;98935.53;;;18.44;88.59
7433;BME280;32233;49.500;7.764;2023-05-08T11:22:16;98932.50;;;18.12;88.66
7433;BME280;32233;49.500;7.764;2023-05-08T11:25:06;98938.44;;;18.14;88.04
7433;BME280;32233;49.500;7.764;2023-05-08T11:35:51;98922.53;;;18.98;78.95
7433;BME280;32233;49.500;7.764;2023-05-08T11:38:36;98917.75;;;21.08;73.59
7433;BME280;32233;49.500;7.764;2023-05-08T11:41:07;98922.88;;;21.14;69.67
7433;BME280;32233;49.500;7.764;2023-05-08T11:46:06;98916.28;;;19.87;74.27
7433;BME280;32233;49.500;7.764;2023-05-08T11:48:36;98912.53;;;19.66;74.28
7433;BME280;32233;49.500;7.764;2023-05-08T11:51:02;98920.50;;;19.05;75.97
7433;BME280;32233;49.500;7.764;2023-05-08T11:53:30;98915.72;;;18.73;78.59
7433;BME280;32233;49.500;7.764;2023-05-08T11:55:57;98913.56;;;18.59;81.60
7433;BME280;32233;49.500;7.764;2023-05-08T11:58:25;98920.28;;;18.44;82.66
7433;BME280;32233;49.500;7.764;2023-05-08T12:00:52;98920.06;;;18.46;81.94
7433;BME280;32233;49.500;7.764;2023-05-08T12:03:21;98918.56;;;18.38;81.97
7433;BME280;32233;49.500;7.764;2023-05-08T12:05:49;98910.13;;;18.75;77.66
7433;BME280;32233;49.500;7.764;2023-05-08T12:08:17;98913.66;;;18.64;80.48
7433;BME280;32233;49.500;7.764;2023-05-08T12:10:51;98911.28;;;18.50;79.64
7433;BME280;32233;49.500;7.764;2023-05-08T12:13:20;98911.59;;;18.83;80.65
7433;BME280;32233;49.500;7.764;2023-05-08T12:15:49;98913.38;;;18.48;81.95
7433;BME280;32233;49.500;7.764;2023-05-08T12:18:16;98918.56;;;19.00;77.81
7433;BME280;32233;49.500;7.764;2023-05-08T12:20:43;98911.31;;;19.18;76.43
7433;BME280;32233;49.500;7.764;2023-05-08T12:23:10;98906.69;;;19.69;75.95
7433;BME280;32233;49.500;7.764;2023-05-08T12:25:39;98918.59;;;19.78;72.99
7433;BME280;32233;49.500;7.764;2023-05-08T12:28:06;98911.00;;;19.53;77.48
7433;BME280;32233;49.500;7.764;2023-05-08T12:30:34;98902.53;;;19.39;78.98
7433;BME280;32233;49.500;7.764;2023-05-08T12:33:02;98908.75;;;18.89;84.50
7433;BME280;32233;49.500;7.764;2023-05-08T12:35:30;98906.47;;;18.36;86.48
7433;BME280;32233;49.500;7.764;2023-05-08T12:38:01;98908.38;;;18.23;87.17
7433;BME280;32233;49.500;7.764;2023-05-08T12:40:42;98913.22;;;18.10;86.68
7433;BME280;32233;49.500;7.764;2023-05-08T12:43:09;98918.56;;;17.81;89.83
7433;BME280;32233;49.500;7.764;2023-05-08T12:45:38;98922.69;;;18.00;88.55
7433;BME280;32233;49.500;7.764;2023-05-08T12:48:06;98920.28;;;18.16;87.26
7433;BME280;32233;49.500;7.764;2023-05-08T12:50:38;98913.28;;;18.26;88.81
7433;BME280;32233;49.500;7.764;2023-05-08T12:53:06;98910.72;;;17.91;87.80
7433;BME280;32233;49.500;7.764;2023-05-08T12:55:34;98912.03;;;17.89;88.69
7433;BME280;32233;49.500;7.764;2023-05-08T12:58:09;98911.91;;;17.83;90.85
7433;BME280;32233;49.500;7.764;2023-05-08T13:03:13;98913.91;;;17.76;89.27
7433;BME280;32233;49.500;7.764;2023-05-08T13:05:46;98911.16;;;18.00;87.18
7433;BME280;32233;49.500;7.764;2023-05-08T13:08:13;98912.06;;;17.77;86.93
7433;BME280;32233;49.500;7.764;2023-05-08T13:10:50;98914.72;;;17.77;88.01
7433;BME280;32233;49.500;7.764;2023-05-08T13:13:29;98913.09;;;17.76;87.94
7433;BME280;32233;49.500;7.764;2023-05-08T13:15:56;98916.50;;;18.00;87.14
7433;BME280;32233;49.500;7.764;2023-05-08T13:18:25;98911.84;;;18.07;88.11
7433;BME280;32233;49.500;7.764;2023-05-08T13:20:55;98908.00;;;18.03;86.83
7433;BME280;32233;49.500;7.764;2023-05-08T13:23:23;98911.16;;;18.00;88.27
7433;BME280;32233;49.500;7.764;2023-05-08T13:25:49;98901.69;;;18.21;87.33
7433;BME280;32233;49.500;7.764;2023-05-08T13:28:16;98899.09;;;18.43;85.95
7433;BME280;32233;49.500;7.764;2023-05-08T13:30:43;98894.06;;;18.01;87.71
7433;BME280;32233;49.500;7.764;2023-05-08T13:33:09;98904.84;;;17.77;89.27
7433;BME280;32233;49.500;7.764;2023-05-08T13:35:36;98908.00;;;17.51;91.04
7433;BME280;32233;49.500;7.764;2023-05-08T13:38:02;98895.94;;;17.37;91.66
7433;BME280;32233;49.500;7.764;2023-05-08T13:40:29;98902.63;;;17.74;90.90
7433;BME280;32233;49.500;7.764;2023-05-08T13:42:55;98902.41;;;17.76;88.93
7433;BME280;32233;49.500;7.764;2023-05-08T13:45:22;98901.19;;;17.83;89.75
7433;BME280;32233;49.500;7.764;2023-05-08T13:47:49;98906.16;;;17.40;93.44
7433;BME280;32233;49.500;7.764;2023-05-08T13:50:16;98900.56;;;17.76;90.75